Time,TemperatureF,DewpointF,PressureIn,WindDirection,WindDirectionDegrees,WindSpeedMPH,WindSpeedGustMPH,Humidity,HourlyPrecipIn,Conditions,Clouds,dailyrainin,SoftwareType,DateUTC
2013-02-19 00:00:00,41.7,27.2,30.24,SE,136,0.0,2.0,56,0.00,,---,0.00,VWS V14.01,2013-02-19 05:00:00,
2013-02-19 00:05:00,41.8,27.3,30.24,SE,135,0.0,1.0,56,0.00,,---,0.00,VWS V14.01,2013-02-19 05:05:00,
2013-02-19 00:11:00,41.6,27.1,30.24,SE,135,1.0,1.0,56,0.00,,---,0.00,VWS V14.01,2013-02-19 05:11:00,
2013-02-19 00:15:00,41.3,27.2,30.24,SE,129,0.0,1.0,57,0.00,,---,0.00,VWS V14.01,2013-02-19 05:15:00,
2013-02-19 00:21:00,41.2,27.1,30.24,SE,130,1.0,2.0,57,0.00,,---,0.00,VWS V14.01,2013-02-19 05:21:00,
2013-02-19 00:27:00,40.7,27.1,30.24,SE,130,1.0,2.0,58,0.00,,---,0.00,VWS V14.01,2013-02-19 05:27:00,
2013-02-19 00:30:00,39.9,27.6,30.21,South,172,1.0,2.0,61,0.00,,---,0.00,VWS V14.01,2013-02-19 05:30:00,
2013-02-19 00:33:00,40.5,27.3,30.24,SE,131,1.0,1.0,59,0.00,,---,0.00,VWS V14.01,2013-02-19 05:33:00,
2013-02-19 00:39:00,40.4,27.2,30.24,SE,129,1.0,1.0,59,0.00,,---,0.00,VWS V14.01,2013-02-19 05:39:00,
2013-02-19 00:45:00,40.5,27.3,30.24,SE,131,1.0,1.0,59,0.00,,---,0.00,VWS V14.01,2013-02-19 05:45:00,
2013-02-19 00:51:00,40.6,27.4,30.23,SE,146,1.0,2.0,59,0.00,,---,0.00,VWS V14.01,2013-02-19 05:51:00,
2013-02-19 00:58:00,40.3,27.1,30.22,SE,142,1.0,2.0,59,0.00,,---,0.00,VWS V14.01,2013-02-19 05:58:00,
2013-02-19 01:00:00,40.4,27.6,30.19,SSE,154,1.0,3.0,60,0.00,,---,0.00,VWS V14.01,2013-02-19 06:00:00,
2013-02-19 01:04:00,40.1,26.9,30.22,SE,138,1.0,2.0,59,0.00,,---,0.00,VWS V14.01,2013-02-19 06:04:00,
2013-02-19 01:10:00,40.0,27.2,30.21,SSE,153,0.0,2.0,60,0.00,,---,0.00,VWS V14.01,2013-02-19 06:10:00,
2013-02-19 01:16:00,40.0,27.2,30.21,SE,131,0.0,2.0,60,0.00,,---,0.00,VWS V14.01,2013-02-19 06:16:00,
2013-02-19 01:22:00,40.1,27.4,30.21,SSE,147,0.0,2.0,60,0.00,,---,0.00,VWS V14.01,2013-02-19 06:22:00,
2013-02-19 01:28:00,39.9,27.6,30.21,SSE,158,1.0,2.0,61,0.00,,---,0.00,VWS V14.01,2013-02-19 06:28:00,
2013-02-19 01:30:00,40.8,28.4,30.17,East,90,1.0,2.0,61,0.00,,---,0.00,VWS V14.01,2013-02-19 06:30:00,
2013-02-19 01:34:00,39.9,27.6,30.21,SSE,160,1.0,2.0,61,0.00,,---,0.00,VWS V14.01,2013-02-19 06:34:00,
2013-02-19 01:40:00,40.2,27.4,30.19,SE,146,2.0,3.0,60,0.00,,---,0.00,VWS V14.01,2013-02-19 06:40:00,
2013-02-19 01:46:00,40.4,28.0,30.19,SE,141,2.0,3.0,61,0.00,,---,0.00,VWS V14.01,2013-02-19 06:46:00,
2013-02-19 01:52:00,40.4,27.6,30.19,SSE,167,1.0,3.0,60,0.00,,---,0.00,VWS V14.01,2013-02-19 06:52:00,
2013-02-19 01:58:00,40.4,27.6,30.18,SSE,150,1.0,3.0,60,0.00,,---,0.00,VWS V14.01,2013-02-19 06:58:00,
2013-02-19 02:00:00,40.9,28.9,30.16,SE,135,0.0,2.0,62,0.00,,---,0.00,VWS V14.01,2013-02-19 07:00:00,
2013-02-19 02:04:00,40.6,27.8,30.19,SSE,164,1.0,2.0,60,0.00,,---,0.00,VWS V14.01,2013-02-19 07:04:00,
2013-02-19 02:10:00,40.7,28.3,30.18,SSE,150,1.0,2.0,61,0.00,,---,0.00,VWS V14.01,2013-02-19 07:10:00,
2013-02-19 02:16:00,40.7,28.3,30.18,SE,146,1.0,2.0,61,0.00,,---,0.00,VWS V14.01,2013-02-19 07:16:00,
2013-02-19 02:22:00,40.7,28.3,30.18,SE,146,0.0,2.0,61,0.00,,---,0.00,VWS V14.01,2013-02-19 07:22:00,
2013-02-19 02:28:00,40.8,28.4,30.17,SE,146,0.0,2.0,61,0.00,,---,0.00,VWS V14.01,2013-02-19 07:28:00,
2013-02-19 02:30:00,40.8,30.0,30.17,NW,322,2.0,2.0,65,0.00,,---,0.00,VWS V14.01,2013-02-19 07:30:00,
2013-02-19 02:34:00,40.8,28.4,30.17,SSE,153,0.0,2.0,61,0.00,,---,0.00,VWS V14.01,2013-02-19 07:34:00,
2013-02-19 02:40:00,40.9,28.9,30.18,South,177,0.0,2.0,62,0.00,,---,0.00,VWS V14.01,2013-02-19 07:40:00,
2013-02-19 02:47:00,40.9,28.9,30.17,South,177,0.0,2.0,62,0.00,,---,0.00,VWS V14.01,2013-02-19 07:47:00,
2013-02-19 02:53:00,40.9,28.9,30.16,SSE,153,0.0,2.0,62,0.00,,---,0.00,VWS V14.01,2013-02-19 07:53:00,
2013-02-19 02:59:00,40.8,28.8,30.16,SSE,150,1.0,2.0,62,0.00,,---,0.00,VWS V14.01,2013-02-19 07:59:00,
2013-02-19 03:00:00,39.0,29.4,30.16,NNW,336,0.0,3.0,68,0.00,,---,0.00,VWS V14.01,2013-02-19 08:00:00,
2013-02-19 03:05:00,40.8,28.8,30.16,SE,135,0.0,1.0,62,0.00,,---,0.00,VWS V14.01,2013-02-19 08:05:00,
2013-02-19 03:11:00,40.8,28.8,30.16,SE,141,0.0,1.0,62,0.00,,---,0.00,VWS V14.01,2013-02-19 08:11:00,
2013-02-19 03:17:00,40.8,29.2,30.16,SW,217,0.0,1.0,63,0.00,,---,0.00,VWS V14.01,2013-02-19 08:17:00,
2013-02-19 03:23:00,40.8,29.6,30.17,SW,217,0.0,1.0,64,0.00,,---,0.00,VWS V14.01,2013-02-19 08:23:00,
2013-02-19 03:29:00,40.9,29.7,30.17,WSW,253,1.0,1.0,64,0.00,,---,0.00,VWS V14.01,2013-02-19 08:29:00,
2013-02-19 03:30:00,39.2,30.6,30.15,NNW,336,0.0,1.0,71,0.00,,---,0.00,VWS V14.01,2013-02-19 08:30:00,
2013-02-19 03:35:00,40.0,29.2,30.18,NNW,339,2.0,2.0,65,0.00,,---,0.00,VWS V14.01,2013-02-19 08:35:00,
2013-02-19 03:41:00,39.4,28.6,30.18,NNW,337,1.0,3.0,65,0.00,,---,0.00,VWS V14.01,2013-02-19 08:41:00,
2013-02-19 03:47:00,39.0,29.4,30.17,NNW,336,0.0,3.0,68,0.00,,---,0.00,VWS V14.01,2013-02-19 08:47:00,
2013-02-19 03:53:00,38.9,29.6,30.17,NNW,336,0.0,3.0,69,0.00,,---,0.00,VWS V14.01,2013-02-19 08:53:00,
2013-02-19 03:59:00,38.9,29.6,30.16,NNW,336,0.0,3.0,69,0.00,,---,0.00,VWS V14.01,2013-02-19 08:59:00,
2013-02-19 04:00:00,38.7,30.8,30.17,NNW,328,1.0,3.0,73,0.00,,---,0.00,VWS V14.01,2013-02-19 09:00:00,
2013-02-19 04:05:00,39.1,29.8,30.16,NNW,336,0.0,1.0,69,0.00,,---,0.00,VWS V14.01,2013-02-19 09:05:00,
2013-02-19 04:11:00,39.1,30.2,30.15,NNW,336,0.0,1.0,70,0.00,,---,0.00,VWS V14.01,2013-02-19 09:11:00,
2013-02-19 04:17:00,39.2,30.2,30.16,NNW,335,0.0,1.0,70,0.00,,---,0.00,VWS V14.01,2013-02-19 09:17:00,
2013-02-19 04:23:00,39.3,30.7,30.16,NNW,336,1.0,1.0,71,0.00,,---,0.00,VWS V14.01,2013-02-19 09:23:00,
2013-02-19 04:29:00,39.2,30.2,30.15,NNW,336,0.0,1.0,70,0.00,,---,0.00,VWS V14.01,2013-02-19 09:29:00,
2013-02-19 04:30:00,38.4,33.4,30.15,NNW,328,0.0,1.0,82,0.00,,---,0.00,VWS V14.01,2013-02-19 09:30:00,
2013-02-19 04:35:00,39.3,30.7,30.14,NNW,336,0.0,1.0,71,0.00,,---,0.00,VWS V14.01,2013-02-19 09:35:00,
2013-02-19 04:41:00,39.4,31.1,30.15,NNW,336,1.0,1.0,72,0.00,,---,0.00,VWS V14.01,2013-02-19 09:41:00,
2013-02-19 04:47:00,39.5,31.6,30.15,NNW,335,0.0,1.0,73,0.00,,---,0.00,VWS V14.01,2013-02-19 09:47:00,
2013-02-19 04:53:00,39.4,31.8,30.17,NNW,328,1.0,2.0,74,0.00,,---,0.00,VWS V14.01,2013-02-19 09:53:00,
2013-02-19 05:00:00,38.8,30.9,30.17,NNW,328,1.0,3.0,73,0.00,,---,0.00,VWS V14.01,2013-02-19 10:00:00,
2013-02-19 05:06:00,38.7,31.1,30.16,NNW,328,0.0,1.0,74,0.00,,---,0.00,VWS V14.01,2013-02-19 10:06:00,
2013-02-19 05:12:00,38.7,31.8,30.15,NNW,327,0.0,1.0,76,0.00,,---,0.00,VWS V14.01,2013-02-19 10:12:00,
2013-02-19 05:18:00,38.6,32.3,30.15,NNW,328,0.0,1.0,78,0.00,,---,0.00,VWS V14.01,2013-02-19 10:18:00,
2013-02-19 05:24:00,38.5,32.6,30.15,NNW,327,1.0,1.0,79,0.00,,---,0.00,VWS V14.01,2013-02-19 10:24:00,
2013-02-19 05:30:00,38.4,33.4,30.15,NNW,327,0.0,1.0,82,0.00,,---,0.00,VWS V14.01,2013-02-19 10:30:00,
2013-02-19 05:36:00,38.2,33.8,30.15,NNW,327,1.0,1.0,84,0.01,,---,0.01,VWS V14.01,2013-02-19 10:36:00,
2013-02-19 05:42:00,38.0,34.8,30.15,NNW,327,0.0,1.0,88,0.02,,---,0.02,VWS V14.01,2013-02-19 10:42:00,
2013-02-19 05:48:00,37.7,34.5,30.14,NNW,328,0.0,1.0,88,0.03,,---,0.03,VWS V14.01,2013-02-19 10:48:00,
2013-02-19 05:54:00,37.4,34.5,30.14,NNW,327,0.0,1.0,89,0.04,,---,0.04,VWS V14.01,2013-02-19 10:54:00,
2013-02-19 06:00:00,37.1,34.2,30.14,NNW,328,0.0,1.0,89,0.05,,---,0.05,VWS V14.01,2013-02-19 11:00:00,
2013-02-19 06:06:00,37.1,34.4,30.14,NNW,327,0.0,1.0,90,0.06,,---,0.06,VWS V14.01,2013-02-19 11:06:00,
2013-02-19 06:12:00,37.1,34.7,30.14,NNW,327,0.0,1.0,91,0.06,,---,0.06,VWS V14.01,2013-02-19 11:12:00,
2013-02-19 06:18:00,37.2,35.1,30.14,NNW,328,0.0,1.0,92,0.06,,---,0.06,VWS V14.01,2013-02-19 11:18:00,
2013-02-19 06:24:00,37.2,35.1,30.14,NNW,328,0.0,1.0,92,0.07,,---,0.07,VWS V14.01,2013-02-19 11:24:00,
2013-02-19 06:30:00,37.1,35.0,30.13,NNW,328,0.0,1.0,92,0.08,,---,0.08,VWS V14.01,2013-02-19 11:30:00,
2013-02-19 06:36:00,36.9,34.8,30.13,NNW,327,0.0,1.0,92,0.09,,---,0.09,VWS V14.01,2013-02-19 11:36:00,
2013-02-19 06:42:00,36.9,35.1,30.14,NNW,328,1.0,2.0,93,0.10,,---,0.10,VWS V14.01,2013-02-19 11:42:00,
2013-02-19 06:48:00,37.0,35.4,30.14,NNW,329,1.0,2.0,94,0.12,,---,0.12,VWS V14.01,2013-02-19 11:48:00,
2013-02-19 06:54:00,37.1,35.5,30.13,NNW,328,0.0,2.0,94,0.13,,---,0.13,VWS V14.01,2013-02-19 11:54:00,
2013-02-19 07:00:00,37.0,35.4,30.13,NNW,328,0.0,2.0,94,0.13,,---,0.13,VWS V14.01,2013-02-19 12:00:00,
2013-02-19 07:06:00,36.8,35.2,30.14,NNW,329,0.0,1.0,94,0.10,,---,0.15,VWS V14.01,2013-02-19 12:06:00,
2013-02-19 07:13:00,36.8,35.2,30.13,NNW,329,0.0,1.0,94,0.11,,---,0.16,VWS V14.01,2013-02-19 12:13:00,
2013-02-19 07:19:00,36.7,35.1,30.13,NNW,328,1.0,1.0,94,0.12,,---,0.17,VWS V14.01,2013-02-19 12:19:00,
2013-02-19 07:25:00,36.8,35.2,30.13,NNW,332,1.0,2.0,94,0.13,,---,0.18,VWS V14.01,2013-02-19 12:25:00,
2013-02-19 07:30:00,36.8,35.2,30.12,NNW,340,0.0,2.0,94,0.13,,---,0.18,VWS V14.01,2013-02-19 12:30:00,
2013-02-19 07:37:00,36.9,35.3,30.13,NNW,337,2.0,2.0,94,0.11,,---,0.19,VWS V14.01,2013-02-19 12:37:00,
2013-02-19 07:43:00,36.9,35.3,30.12,NNW,332,0.0,2.0,94,0.12,,---,0.20,VWS V14.01,2013-02-19 12:43:00,
2013-02-19 07:49:00,36.9,35.3,30.12,NNW,332,0.0,2.0,94,0.12,,---,0.20,VWS V14.01,2013-02-19 12:49:00,
2013-02-19 07:55:00,37.0,35.4,30.11,NNW,332,0.0,2.0,94,0.13,,---,0.21,VWS V14.01,2013-02-19 12:55:00,
2013-02-19 08:00:00,37.1,35.8,30.11,NNW,332,0.0,2.0,95,0.13,,---,0.21,VWS V14.01,2013-02-19 13:00:00,
2013-02-19 08:07:00,37.2,35.9,30.11,NNW,332,0.0,0.0,95,0.08,,---,0.21,VWS V14.01,2013-02-19 13:07:00,
2013-02-19 08:13:00,37.2,35.9,30.11,NNW,332,0.0,0.0,95,0.09,,---,0.22,VWS V14.01,2013-02-19 13:13:00,
2013-02-19 08:19:00,37.3,36.0,30.11,NNW,332,0.0,1.0,95,0.09,,---,0.22,VWS V14.01,2013-02-19 13:19:00,
2013-02-19 08:25:00,37.4,36.1,30.10,NNW,332,1.0,1.0,95,0.09,,---,0.22,VWS V14.01,2013-02-19 13:25:00,
2013-02-19 08:30:00,37.5,36.2,30.10,SSE,157,0.0,1.0,95,0.10,,---,0.23,VWS V14.01,2013-02-19 13:30:00,
2013-02-19 08:37:00,37.7,36.4,30.10,SSE,148,1.0,1.0,95,0.05,,---,0.23,VWS V14.01,2013-02-19 13:37:00,
2013-02-19 08:43:00,37.8,36.5,30.11,SE,141,0.0,2.0,95,0.05,,---,0.23,VWS V14.01,2013-02-19 13:43:00,
2013-02-19 08:49:00,37.8,36.5,30.10,ESE,122,0.0,2.0,95,0.05,,---,0.23,VWS V14.01,2013-02-19 13:49:00,
2013-02-19 08:55:00,37.8,36.5,30.10,ESE,120,0.0,2.0,95,0.06,,---,0.24,VWS V14.01,2013-02-19 13:55:00,
2013-02-19 09:00:00,39.3,38.0,30.08,WSW,250,1.0,1.0,95,0.01,,---,0.24,VWS V14.01,2013-02-19 14:00:00,
2013-02-19 09:01:00,37.9,36.6,30.10,ESE,120,1.0,1.0,95,0.03,,---,0.24,VWS V14.01,2013-02-19 14:01:00,
2013-02-19 09:07:00,38.1,37.1,30.10,ESE,121,0.0,1.0,96,0.03,,---,0.24,VWS V14.01,2013-02-19 14:07:00,
2013-02-19 09:13:00,38.3,37.3,30.09,ESE,121,0.0,1.0,96,0.03,,---,0.24,VWS V14.01,2013-02-19 14:13:00,
2013-02-19 09:20:00,38.5,37.2,30.10,ESE,122,0.0,1.0,95,0.03,,---,0.24,VWS V14.01,2013-02-19 14:20:00,
2013-02-19 09:26:00,38.5,37.2,30.09,ESE,121,0.0,1.0,95,0.03,,---,0.24,VWS V14.01,2013-02-19 14:26:00,
2013-02-19 09:30:00,39.9,38.6,30.08,WSW,248,0.0,2.0,95,0.00,,---,0.24,VWS V14.01,2013-02-19 14:30:00,
2013-02-19 09:32:00,38.6,37.3,30.09,ESE,121,0.0,1.0,95,0.01,,---,0.24,VWS V14.01,2013-02-19 14:32:00,
2013-02-19 09:38:00,38.9,37.6,30.09,WSW,252,0.0,1.0,95,0.01,,---,0.24,VWS V14.01,2013-02-19 14:38:00,
2013-02-19 09:44:00,39.1,37.8,30.08,WSW,253,0.0,1.0,95,0.01,,---,0.24,VWS V14.01,2013-02-19 14:44:00,
2013-02-19 09:50:00,39.2,37.9,30.08,WSW,253,0.0,1.0,95,0.01,,---,0.24,VWS V14.01,2013-02-19 14:50:00,
2013-02-19 09:56:00,39.3,38.0,30.08,WSW,253,0.0,1.0,95,0.01,,---,0.24,VWS V14.01,2013-02-19 14:56:00,
2013-02-19 10:00:00,40.2,38.9,30.08,SW,217,0.0,2.0,95,0.00,,---,0.24,VWS V14.01,2013-02-19 15:00:00,
2013-02-19 10:02:00,39.4,38.1,30.08,WNW,300,0.0,1.0,95,0.00,,---,0.24,VWS V14.01,2013-02-19 15:02:00,
2013-02-19 10:08:00,39.5,38.2,30.08,WNW,300,0.0,1.0,95,0.00,,---,0.24,VWS V14.01,2013-02-19 15:08:00,
2013-02-19 10:14:00,39.6,38.3,30.08,WNW,299,0.0,1.0,95,0.00,,---,0.24,VWS V14.01,2013-02-19 15:14:00,
2013-02-19 10:20:00,39.8,38.5,30.08,West,277,0.0,1.0,95,0.00,,---,0.24,VWS V14.01,2013-02-19 15:20:00,
2013-02-19 10:26:00,39.9,38.6,30.08,WSW,248,1.0,1.0,95,0.00,,---,0.24,VWS V14.01,2013-02-19 15:26:00,
2013-02-19 10:30:00,40.4,39.1,30.08,SW,231,1.0,4.0,95,0.00,,---,0.24,VWS V14.01,2013-02-19 15:30:00,
2013-02-19 10:32:00,39.9,38.3,30.08,NNW,333,0.0,2.0,94,0.00,,---,0.24,VWS V14.01,2013-02-19 15:32:00,
2013-02-19 10:38:00,39.9,38.3,30.08,South,179,0.0,2.0,94,0.00,,---,0.24,VWS V14.01,2013-02-19 15:38:00,
2013-02-19 10:44:00,40.0,38.7,30.08,SW,224,0.0,2.0,95,0.00,,---,0.24,VWS V14.01,2013-02-19 15:44:00,
2013-02-19 10:50:00,40.0,38.4,30.08,WSW,255,0.0,2.0,94,0.00,,---,0.24,VWS V14.01,2013-02-19 15:50:00,
2013-02-19 10:56:00,40.1,38.5,30.08,SW,217,0.0,2.0,94,0.00,,---,0.24,VWS V14.01,2013-02-19 15:56:00,
2013-02-19 11:00:00,41.0,39.4,30.06,SE,132,0.0,4.0,94,0.00,,---,0.24,VWS V14.01,2013-02-19 16:00:00,
2013-02-19 11:02:00,40.3,39.0,30.08,SW,231,1.0,2.0,95,0.00,,---,0.24,VWS V14.01,2013-02-19 16:02:00,
2013-02-19 11:08:00,40.4,39.1,30.08,South,172,0.0,2.0,95,0.00,,---,0.24,VWS V14.01,2013-02-19 16:08:00,
2013-02-19 11:14:00,40.5,39.2,30.08,West,265,0.0,2.0,95,0.00,,---,0.24,VWS V14.01,2013-02-19 16:14:00,
2013-02-19 11:20:00,40.5,39.2,30.08,NW,321,2.0,4.0,95,0.00,,---,0.24,VWS V14.01,2013-02-19 16:20:00,
2013-02-19 11:26:00,40.4,39.1,30.08,NNW,333,1.0,4.0,95,0.00,,---,0.24,VWS V14.01,2013-02-19 16:26:00,
2013-02-19 11:30:00,41.9,40.6,30.04,West,264,1.0,3.0,95,0.00,,---,0.24,VWS V14.01,2013-02-19 16:30:00,
2013-02-19 11:32:00,40.5,39.2,30.07,SW,233,0.0,1.0,95,0.00,,---,0.24,VWS V14.01,2013-02-19 16:32:00,
2013-02-19 11:38:00,40.7,39.4,30.07,NW,311,1.0,2.0,95,0.00,,---,0.24,VWS V14.01,2013-02-19 16:38:00,
2013-02-19 11:44:00,40.8,39.5,30.06,SSE,158,0.0,2.0,95,0.00,,---,0.24,VWS V14.01,2013-02-19 16:44:00,
2013-02-19 11:50:00,41.0,39.7,30.06,North,352,0.0,2.0,95,0.00,,---,0.24,VWS V14.01,2013-02-19 16:50:00,
2013-02-19 11:56:00,41.1,39.5,30.06,SSE,164,0.0,4.0,94,0.00,,---,0.24,VWS V14.01,2013-02-19 16:56:00,
2013-02-19 12:00:00,43.1,41.5,30.02,SW,232,2.0,4.0,94,0.00,,---,0.24,VWS V14.01,2013-02-19 17:00:00,
2013-02-19 12:03:00,41.0,39.7,30.06,SSW,201,0.0,2.0,95,0.00,,---,0.24,VWS V14.01,2013-02-19 17:03:00,
2013-02-19 12:09:00,41.2,39.9,30.06,SW,222,0.0,3.0,95,0.00,,---,0.24,VWS V14.01,2013-02-19 17:09:00,
2013-02-19 12:15:00,41.3,40.0,30.05,SW,228,0.0,3.0,95,0.00,,---,0.24,VWS V14.01,2013-02-19 17:15:00,
2013-02-19 12:21:00,41.6,40.3,30.05,SSE,163,2.0,3.0,95,0.00,,---,0.24,VWS V14.01,2013-02-19 17:21:00,
2013-02-19 12:27:00,41.7,40.4,30.04,SSW,198,1.0,3.0,95,0.00,,---,0.24,VWS V14.01,2013-02-19 17:27:00,
2013-02-19 12:30:00,45.6,43.1,30.00,NNW,343,1.0,9.0,91,0.00,,---,0.24,VWS V14.01,2013-02-19 17:30:00,
2013-02-19 12:33:00,42.0,40.7,30.05,SSE,160,0.0,2.0,95,0.00,,---,0.24,VWS V14.01,2013-02-19 17:33:00,
2013-02-19 12:39:00,42.1,40.8,30.04,WNW,286,0.0,3.0,95,0.00,,---,0.24,VWS V14.01,2013-02-19 17:39:00,
2013-02-19 12:45:00,42.2,40.9,30.04,WNW,289,2.0,3.0,95,0.00,,---,0.24,VWS V14.01,2013-02-19 17:45:00,
2013-02-19 12:51:00,42.5,41.2,30.03,WSW,255,1.0,3.0,95,0.00,,---,0.24,VWS V14.01,2013-02-19 17:51:00,
2013-02-19 12:57:00,42.9,41.6,30.03,SW,217,2.0,3.0,95,0.00,,---,0.24,VWS V14.01,2013-02-19 17:57:00,
2013-02-19 13:00:00,48.0,44.0,29.98,NE,39,2.0,9.0,86,0.00,,---,0.24,VWS V14.01,2013-02-19 18:00:00,
2013-02-19 13:03:00,43.5,42.2,30.02,WSW,245,1.0,5.0,95,0.00,,---,0.24,VWS V14.01,2013-02-19 18:03:00,
2013-02-19 13:09:00,44.1,42.5,30.02,WSW,248,3.0,7.0,94,0.00,,---,0.24,VWS V14.01,2013-02-19 18:09:00,
2013-02-19 13:15:00,44.8,42.9,30.01,NW,314,2.0,7.0,93,0.00,,---,0.24,VWS V14.01,2013-02-19 18:15:00,
2013-02-19 13:21:00,45.4,43.5,30.01,NW,314,1.0,7.0,93,0.00,,---,0.24,VWS V14.01,2013-02-19 18:21:00,
2013-02-19 13:29:00,45.6,42.8,30.00,NNE,29,2.0,9.0,90,0.00,,---,0.24,VWS V14.01,2013-02-19 18:29:00,
2013-02-19 13:30:00,50.1,44.8,29.98,North,11,3.0,11.0,82,0.00,,---,0.24,VWS V14.01,2013-02-19 18:30:00,
2013-02-19 13:35:00,46.0,43.2,30.00,South,171,5.0,8.0,90,0.00,,---,0.24,VWS V14.01,2013-02-19 18:35:00,
2013-02-19 13:42:00,46.4,43.3,30.00,West,266,4.0,8.0,89,0.00,,---,0.24,VWS V14.01,2013-02-19 18:42:00,
2013-02-19 13:48:00,46.5,43.1,29.99,West,266,5.0,9.0,88,0.00,,---,0.24,VWS V14.01,2013-02-19 18:48:00,
2013-02-19 13:54:00,47.3,43.9,29.99,West,263,3.0,9.0,88,0.00,,---,0.24,VWS V14.01,2013-02-19 18:54:00,
2013-02-19 14:00:00,48.0,44.0,29.98,NW,326,3.0,9.0,86,0.00,,---,0.24,VWS V14.01,2013-02-19 19:00:00,
2013-02-19 14:06:00,48.3,44.3,29.98,WSW,238,6.0,8.0,86,0.00,,---,0.24,VWS V14.01,2013-02-19 19:06:00,
2013-02-19 14:12:00,48.9,44.6,29.98,WNW,285,4.0,8.0,85,0.00,,---,0.24,VWS V14.01,2013-02-19 19:12:00,
2013-02-19 14:18:00,49.1,44.5,29.98,ESE,122,1.0,11.0,84,0.00,,---,0.24,VWS V14.01,2013-02-19 19:18:00,
2013-02-19 14:24:00,49.6,44.7,29.97,South,170,3.0,11.0,83,0.00,,---,0.24,VWS V14.01,2013-02-19 19:24:00,
2013-02-19 14:30:00,50.1,45.2,29.98,NW,309,3.0,11.0,83,0.00,,---,0.24,VWS V14.01,2013-02-19 19:30:00,
2013-02-19 14:36:00,50.4,45.1,29.97,SW,236,1.0,8.0,82,0.00,,---,0.24,VWS V14.01,2013-02-19 19:36:00,
2013-02-19 14:42:00,50.8,44.9,29.97,WNW,286,3.0,8.0,80,0.00,,---,0.24,VWS V14.01,2013-02-19 19:42:00,
2013-02-19 14:48:00,51.0,45.1,29.97,SSW,202,4.0,8.0,80,0.00,,---,0.24,VWS V14.01,2013-02-19 19:48:00,
2013-02-19 14:54:00,51.5,45.5,29.96,NW,317,0.0,8.0,80,0.00,,---,0.24,VWS V14.01,2013-02-19 19:54:00,
2013-02-19 15:00:00,51.9,45.6,29.96,SSW,194,4.0,8.0,79,0.00,,---,0.24,VWS V14.01,2013-02-19 20:00:00,
2013-02-19 15:06:00,51.6,45.0,29.96,WSW,239,1.0,7.0,78,0.00,,---,0.24,VWS V14.01,2013-02-19 20:06:00,
2013-02-19 15:12:00,51.7,45.4,29.96,SSE,158,5.0,7.0,79,0.00,,---,0.24,VWS V14.01,2013-02-19 20:12:00,
2013-02-19 15:18:00,52.5,45.8,29.95,South,172,1.0,9.0,78,0.00,,---,0.24,VWS V14.01,2013-02-19 20:18:00,
2013-02-19 15:24:00,53.3,45.9,29.95,South,173,3.0,9.0,76,0.00,,---,0.24,VWS V14.01,2013-02-19 20:24:00,
2013-02-19 15:30:00,53.6,45.9,29.95,South,172,6.0,9.0,75,0.00,,---,0.24,VWS V14.01,2013-02-19 20:30:00,
2013-02-19 15:36:00,53.4,45.3,29.95,South,177,4.0,6.0,74,0.00,,---,0.24,VWS V14.01,2013-02-19 20:36:00,
2013-02-19 15:42:00,52.6,44.9,29.95,SW,235,1.0,8.0,75,0.00,,---,0.24,VWS V14.01,2013-02-19 20:42:00,
2013-02-19 15:49:00,52.3,45.0,29.94,South,176,3.0,9.0,76,0.00,,---,0.24,VWS V14.01,2013-02-19 20:49:00,
2013-02-19 15:55:00,53.2,45.8,29.94,WSW,258,1.0,9.0,76,0.00,,---,0.24,VWS V14.01,2013-02-19 20:55:00,
2013-02-19 16:00:00,53.8,45.7,29.94,WNW,294,1.0,9.0,74,0.00,,---,0.24,VWS V14.01,2013-02-19 21:00:00,
2013-02-19 16:07:00,54.2,45.0,29.95,SSW,212,3.0,8.0,71,0.00,,---,0.24,VWS V14.01,2013-02-19 21:07:00,
2013-02-19 16:13:00,54.6,45.0,29.95,WNW,292,2.0,8.0,70,0.00,,---,0.24,VWS V14.01,2013-02-19 21:13:00,
2013-02-19 16:19:00,54.8,45.2,29.95,WNW,288,1.0,8.0,70,0.00,,---,0.24,VWS V14.01,2013-02-19 21:19:00,
2013-02-19 16:25:00,55.2,45.2,29.95,SSE,157,1.0,8.0,69,0.00,,---,0.24,VWS V14.01,2013-02-19 21:25:00,
2013-02-19 16:30:00,54.8,44.5,29.95,SE,132,2.0,8.0,68,0.00,,---,0.24,VWS V14.01,2013-02-19 21:30:00,
2013-02-19 16:37:00,54.2,44.3,29.95,SSE,150,2.0,10.0,69,0.00,,---,0.24,VWS V14.01,2013-02-19 21:37:00,
2013-02-19 16:43:00,53.5,44.0,29.95,South,183,5.0,11.0,70,0.00,,---,0.24,VWS V14.01,2013-02-19 21:43:00,
2013-02-19 16:49:00,53.2,43.7,29.95,South,191,3.0,11.0,70,0.00,,---,0.24,VWS V14.01,2013-02-19 21:49:00,
2013-02-19 16:55:00,53.0,43.5,29.95,WNW,295,0.0,11.0,70,0.00,,---,0.24,VWS V14.01,2013-02-19 21:55:00,
2013-02-19 17:00:00,53.0,43.5,29.96,WSW,239,1.0,11.0,70,0.00,,---,0.24,VWS V14.01,2013-02-19 22:00:00,
2013-02-19 17:07:00,53.0,43.5,29.96,WSW,249,3.0,5.0,70,0.00,,---,0.24,VWS V14.01,2013-02-19 22:07:00,
2013-02-19 17:13:00,53.0,43.1,29.96,SW,218,1.0,5.0,69,0.00,,---,0.24,VWS V14.01,2013-02-19 22:13:00,
2013-02-19 17:19:00,53.0,42.7,29.96,West,271,1.0,5.0,68,0.00,,---,0.24,VWS V14.01,2013-02-19 22:19:00,
2013-02-19 17:25:00,53.2,36.0,29.97,North,359,4.0,16.0,52,0.00,,---,0.24,VWS V14.01,2013-02-19 22:25:00,
2013-02-19 17:30:00,51.0,28.1,30.00,NW,308,3.0,8.0,41,0.00,,---,0.24,VWS V14.01,2013-02-19 22:30:00,
2013-02-19 17:31:00,53.8,33.5,29.97,NW,319,10.0,11.0,46,0.00,,---,0.24,VWS V14.01,2013-02-19 22:31:00,
2013-02-19 17:37:00,54.0,32.6,29.97,WNW,303,3.0,21.0,44,0.00,,---,0.24,VWS V14.01,2013-02-19 22:37:00,
2013-02-19 17:43:00,54.0,31.5,29.97,WNW,300,3.0,24.0,42,0.00,,---,0.24,VWS V14.01,2013-02-19 22:43:00,
2013-02-19 17:49:00,53.9,30.1,29.98,NW,314,5.0,24.0,40,0.00,,---,0.24,VWS V14.01,2013-02-19 22:49:00,
2013-02-19 17:55:00,53.6,31.1,29.98,NW,314,4.0,24.0,42,0.00,,---,0.24,VWS V14.01,2013-02-19 22:55:00,
2013-02-19 18:00:00,49.7,27.0,30.02,NNW,332,3.0,11.0,41,0.00,,---,0.24,VWS V14.01,2013-02-19 23:00:00,
2013-02-19 18:01:00,53.2,30.1,29.98,NNW,344,5.0,5.0,41,0.00,,---,0.24,VWS V14.01,2013-02-19 23:01:00,
2013-02-19 18:07:00,52.8,29.2,29.99,WNW,288,2.0,8.0,40,0.00,,---,0.24,VWS V14.01,2013-02-19 23:07:00,
2013-02-19 18:13:00,52.3,29.3,29.99,NW,304,1.0,8.0,41,0.00,,---,0.24,VWS V14.01,2013-02-19 23:13:00,
2013-02-19 18:20:00,51.7,28.2,29.99,SW,231,2.0,8.0,40,0.00,,---,0.24,VWS V14.01,2013-02-19 23:20:00,
2013-02-19 18:26:00,51.4,27.9,30.00,WNW,300,1.0,8.0,40,0.00,,---,0.24,VWS V14.01,2013-02-19 23:26:00,
2013-02-19 18:30:00,48.7,23.6,30.03,North,356,1.0,8.0,37,0.00,,---,0.24,VWS V14.01,2013-02-19 23:30:00,
2013-02-19 18:32:00,50.8,28.0,30.00,NNE,25,3.0,5.0,41,0.00,,---,0.24,VWS V14.01,2013-02-19 23:32:00,
2013-02-19 18:38:00,50.6,27.2,30.00,WSW,248,2.0,6.0,40,0.00,,---,0.24,VWS V14.01,2013-02-19 23:38:00,
2013-02-19 18:44:00,50.4,27.6,30.01,NW,308,2.0,6.0,41,0.00,,---,0.24,VWS V14.01,2013-02-19 23:44:00,
2013-02-19 18:50:00,50.1,27.3,30.01,NW,319,3.0,6.0,41,0.00,,---,0.24,VWS V14.01,2013-02-19 23:50:00,
2013-02-19 18:56:00,49.8,27.1,30.01,SW,214,1.0,6.0,41,0.00,,---,0.24,VWS V14.01,2013-02-19 23:56:00,
2013-02-19 19:00:00,47.6,22.0,30.05,NW,324,0.0,6.0,36,0.00,,---,0.24,VWS V14.01,2013-02-20 00:00:00,
2013-02-19 19:02:00,49.6,26.9,30.02,NW,323,1.0,4.0,41,0.00,,---,0.24,VWS V14.01,2013-02-20 00:02:00,
2013-02-19 19:08:00,49.5,26.8,30.02,NW,311,3.0,8.0,41,0.00,,---,0.24,VWS V14.01,2013-02-20 00:08:00,
2013-02-19 19:14:00,49.2,25.9,30.02,NW,308,2.0,8.0,40,0.00,,---,0.24,VWS V14.01,2013-02-20 00:14:00,
2013-02-19 19:20:00,48.9,25.7,30.02,NW,326,4.0,8.0,40,0.00,,---,0.24,VWS V14.01,2013-02-20 00:20:00,
2013-02-19 19:26:00,48.9,23.8,30.03,WNW,298,1.0,8.0,37,0.00,,---,0.24,VWS V14.01,2013-02-20 00:26:00,
2013-02-19 19:30:00,46.9,21.4,30.06,NW,307,1.0,7.0,36,0.00,,---,0.24,VWS V14.01,2013-02-20 00:30:00,
2013-02-19 19:32:00,48.7,23.0,30.03,WNW,301,1.0,3.0,36,0.00,,---,0.24,VWS V14.01,2013-02-20 00:32:00,
2013-02-19 19:38:00,48.3,22.6,30.04,NW,307,3.0,4.0,36,0.00,,---,0.24,VWS V14.01,2013-02-20 00:38:00,
2013-02-19 19:44:00,48.0,22.3,30.04,WNW,298,1.0,4.0,36,0.00,,---,0.24,VWS V14.01,2013-02-20 00:44:00,
2013-02-19 19:50:00,47.8,22.2,30.04,NW,304,1.0,4.0,36,0.00,,---,0.24,VWS V14.01,2013-02-20 00:50:00,
2013-02-19 19:56:00,47.7,21.4,30.04,NW,304,1.0,6.0,35,0.00,,---,0.24,VWS V14.01,2013-02-20 00:56:00,
2013-02-19 20:00:00,46.4,20.2,30.06,NW,318,4.0,13.0,35,0.00,,---,0.24,VWS V14.01,2013-02-20 01:00:00,
2013-02-19 20:02:00,47.4,21.8,30.05,NW,313,4.0,4.0,36,0.00,,---,0.24,VWS V14.01,2013-02-20 01:02:00,
2013-02-19 20:08:00,47.1,21.5,30.05,West,280,0.0,4.0,36,0.00,,---,0.24,VWS V14.01,2013-02-20 01:08:00,
2013-02-19 20:14:00,47.2,21.6,30.05,NW,324,2.0,5.0,36,0.00,,---,0.24,VWS V14.01,2013-02-20 01:14:00,
2013-02-19 20:20:00,47.1,21.5,30.05,NW,311,1.0,6.0,36,0.00,,---,0.24,VWS V14.01,2013-02-20 01:20:00,
2013-02-19 20:26:00,46.9,21.4,30.05,NW,308,1.0,6.0,36,0.00,,---,0.24,VWS V14.01,2013-02-20 01:26:00,
2013-02-19 20:30:00,45.2,20.5,30.07,NW,319,1.0,9.0,37,0.00,,---,0.24,VWS V14.01,2013-02-20 01:30:00,
2013-02-19 20:32:00,46.7,21.2,30.05,North,356,7.0,7.0,36,0.00,,---,0.24,VWS V14.01,2013-02-20 01:32:00,
2013-02-19 20:38:00,46.7,21.2,30.05,North,357,2.0,11.0,36,0.00,,---,0.24,VWS V14.01,2013-02-20 01:38:00,
2013-02-19 20:45:00,46.7,20.5,30.06,NW,321,4.0,13.0,35,0.00,,---,0.24,VWS V14.01,2013-02-20 01:45:00,
2013-02-19 20:51:00,46.5,21.0,30.06,NNW,333,3.0,13.0,36,0.00,,---,0.24,VWS V14.01,2013-02-20 01:51:00,
2013-02-19 20:57:00,46.4,19.6,30.06,NW,326,4.0,13.0,34,0.00,,---,0.24,VWS V14.01,2013-02-20 01:57:00,
2013-02-19 21:00:00,44.3,19.7,30.07,NNW,340,2.0,6.0,37,0.00,,---,0.24,VWS V14.01,2013-02-20 02:00:00,
2013-02-19 21:03:00,46.4,20.9,30.06,NNW,330,3.0,7.0,36,0.00,,---,0.24,VWS V14.01,2013-02-20 02:03:00,
2013-02-19 21:09:00,46.2,20.7,30.06,NNW,344,4.0,9.0,36,0.00,,---,0.24,VWS V14.01,2013-02-20 02:09:00,
2013-02-19 21:15:00,45.8,21.0,30.07,NW,322,2.0,9.0,37,0.00,,---,0.24,VWS V14.01,2013-02-20 02:15:00,
2013-02-19 21:21:00,45.5,20.8,30.07,NW,323,4.0,9.0,37,0.00,,---,0.24,VWS V14.01,2013-02-20 02:21:00,
2013-02-19 21:27:00,45.3,19.9,30.07,NNW,330,4.0,9.0,36,0.00,,---,0.24,VWS V14.01,2013-02-20 02:27:00,
2013-02-19 21:30:00,43.0,19.8,30.08,NNW,340,2.0,3.0,39,0.00,,---,0.24,VWS V14.01,2013-02-20 02:30:00,
2013-02-19 21:33:00,44.9,20.2,30.07,NW,326,2.0,4.0,37,0.00,,---,0.24,VWS V14.01,2013-02-20 02:33:00,
2013-02-19 21:39:00,44.9,19.6,30.07,NW,326,2.0,4.0,36,0.00,,---,0.24,VWS V14.01,2013-02-20 02:39:00,
2013-02-19 21:45:00,44.8,20.1,30.07,NNW,329,2.0,5.0,37,0.00,,---,0.24,VWS V14.01,2013-02-20 02:45:00,
2013-02-19 21:51:00,44.7,20.0,30.07,NNW,348,2.0,6.0,37,0.00,,---,0.24,VWS V14.01,2013-02-20 02:51:00,
2013-02-19 21:57:00,44.4,19.8,30.07,NNW,330,2.0,6.0,37,0.00,,---,0.24,VWS V14.01,2013-02-20 02:57:00,
2013-02-19 22:00:00,41.7,19.8,30.08,NNW,335,4.0,7.0,41,0.00,,---,0.24,VWS V14.01,2013-02-20 03:00:00,
2013-02-19 22:03:00,44.2,19.0,30.07,NNW,332,2.0,3.0,36,0.00,,---,0.24,VWS V14.01,2013-02-20 03:03:00,
2013-02-19 22:09:00,44.0,18.8,30.07,NNW,329,2.0,3.0,36,0.00,,---,0.24,VWS V14.01,2013-02-20 03:09:00,
2013-02-19 22:15:00,43.9,19.3,30.08,NNW,329,1.0,3.0,37,0.00,,---,0.24,VWS V14.01,2013-02-20 03:15:00,
2013-02-19 22:21:00,43.6,19.1,30.08,NNW,336,1.0,3.0,37,0.00,,---,0.24,VWS V14.01,2013-02-20 03:21:00,
2013-02-19 22:27:00,43.0,19.1,30.08,NW,319,1.0,3.0,38,0.00,,---,0.24,VWS V14.01,2013-02-20 03:27:00,
2013-02-19 22:30:00,42.1,18.3,30.09,NNW,348,5.0,10.0,38,0.00,,---,0.24,VWS V14.01,2013-02-20 03:30:00,
2013-02-19 22:33:00,43.0,19.1,30.08,NW,321,2.0,3.0,38,0.00,,---,0.24,VWS V14.01,2013-02-20 03:33:00,
2013-02-19 22:39:00,43.1,19.2,30.08,NNW,328,3.0,5.0,38,0.00,,---,0.24,VWS V14.01,2013-02-20 03:39:00,
2013-02-19 22:45:00,42.7,19.5,30.08,NW,317,2.0,5.0,39,0.00,,---,0.24,VWS V14.01,2013-02-20 03:45:00,
2013-02-19 22:51:00,42.4,19.2,30.08,NW,326,4.0,5.0,39,0.00,,---,0.24,VWS V14.01,2013-02-20 03:51:00,
2013-02-19 22:57:00,41.9,19.9,30.08,NNW,337,4.0,7.0,41,0.00,,---,0.24,VWS V14.01,2013-02-20 03:57:00,
2013-02-19 23:00:00,42.1,17.7,30.10,North,350,5.0,11.0,37,0.00,,---,0.00,VWS V14.01,2013-02-20 04:00:00,
2013-02-19 23:04:00,41.6,19.7,30.08,NNW,328,2.0,6.0,41,0.00,,---,0.24,VWS V14.01,2013-02-20 04:04:00,
2013-02-19 23:10:00,41.9,19.4,30.09,NW,309,2.0,10.0,40,0.00,,---,0.24,VWS V14.01,2013-02-20 04:10:00,
2013-02-19 23:16:00,42.2,19.0,30.09,NW,325,4.0,10.0,39,0.00,,---,0.24,VWS V14.01,2013-02-20 04:16:00,
2013-02-19 23:22:00,41.8,19.3,30.09,NNW,330,6.0,10.0,40,0.00,,---,0.24,VWS V14.01,2013-02-20 04:22:00,
2013-02-19 23:28:00,42.0,18.2,30.09,NNW,336,5.0,10.0,38,0.00,,---,0.24,VWS V14.01,2013-02-20 04:28:00,
2013-02-19 23:30:00,41.1,17.4,30.11,NNW,333,5.0,10.0,38,0.00,,---,0.00,VWS V14.01,2013-02-20 04:30:00,
2013-02-19 23:34:00,42.0,18.2,30.09,NW,316,3.0,7.0,38,0.00,,---,0.24,VWS V14.01,2013-02-20 04:34:00,
2013-02-19 23:40:00,41.6,17.9,30.09,NNW,332,3.0,7.0,38,0.00,,---,0.24,VWS V14.01,2013-02-20 04:40:00,
2013-02-19 23:46:00,41.5,17.8,30.10,NW,323,5.0,8.0,38,0.00,,---,0.24,VWS V14.01,2013-02-20 04:46:00,
2013-02-19 23:52:00,41.8,18.1,30.10,NW,323,6.0,8.0,38,0.00,,---,0.24,VWS V14.01,2013-02-20 04:52:00,
2013-02-19 23:58:00,42.1,17.7,30.10,North,352,9.0,11.0,37,0.00,,---,0.24,VWS V14.01,2013-02-20 04:58:00,